createdAt,value
2023-02-15T00:00:11.660Z,5.69
2023-02-15T00:02:39.878Z,5.66
2023-02-15T00:05:08.115Z,5.63
2023-02-15T00:07:35.440Z,5.59
2023-02-15T00:10:03.176Z,5.54
2023-02-15T00:12:30.588Z,5.49
2023-02-15T00:14:57.587Z,5.49
2023-02-15T00:17:24.545Z,5.48
2023-02-15T00:19:51.825Z,5.44
2023-02-15T00:22:19.104Z,5.42
2023-02-15T00:24:46.052Z,5.43
2023-02-15T00:27:13.034Z,5.40
2023-02-15T00:29:40.159Z,5.37
2023-02-15T00:32:07.376Z,5.33
2023-02-15T00:34:34.571Z,5.30
2023-02-15T00:37:01.741Z,5.29
2023-02-15T00:39:30.015Z,5.23
2023-02-15T00:41:57.148Z,5.19
2023-02-15T00:44:24.251Z,5.16
2023-02-15T00:46:51.361Z,5.15
2023-02-15T00:49:18.467Z,5.16
2023-02-15T00:51:45.537Z,5.17
2023-02-15T00:54:12.480Z,5.18
2023-02-15T00:56:39.637Z,5.18
2023-02-15T00:59:06.772Z,5.19
2023-02-15T01:01:33.888Z,5.19
2023-02-15T01:04:01.126Z,5.18
2023-02-15T01:06:30.624Z,5.15
2023-02-15T01:08:57.588Z,5.11
2023-02-15T01:11:24.764Z,5.08
2023-02-15T01:13:55.000Z,5.07
2023-02-15T01:16:24.448Z,5.06
2023-02-15T01:18:52.058Z,5.01
2023-02-15T01:21:22.632Z,4.98
2023-02-15T01:23:50.042Z,4.98
2023-02-15T01:26:18.267Z,4.95
2023-02-15T01:28:46.115Z,4.95
2023-02-15T01:31:18.335Z,4.94
2023-02-15T01:33:47.677Z,4.92
2023-02-15T01:36:15.692Z,4.85
2023-02-15T01:38:42.938Z,4.81
2023-02-15T01:41:27.377Z,4.79
2023-02-15T01:44:01.589Z,4.76
2023-02-15T01:46:37.644Z,4.74
2023-02-15T01:49:16.777Z,4.73
2023-02-15T01:51:46.752Z,4.71
2023-02-15T01:54:26.009Z,4.64
2023-02-15T01:56:59.654Z,4.59
2023-02-15T01:59:27.200Z,4.54
2023-02-15T02:01:59.436Z,4.54
2023-02-15T02:04:50.365Z,4.50
2023-02-15T02:07:23.974Z,4.51
2023-02-15T02:09:51.627Z,4.47
2023-02-15T02:12:22.141Z,4.43
2023-02-15T02:14:50.946Z,4.42
2023-02-15T02:17:48.810Z,4.42
2023-02-15T02:21:00.992Z,4.37
2023-02-15T02:23:36.934Z,4.34
2023-02-15T02:26:28.705Z,4.31
2023-02-15T02:29:17.515Z,4.29
2023-02-15T02:32:04.410Z,4.28
2023-02-15T02:34:38.724Z,4.29
2023-02-15T02:37:11.171Z,4.23
2023-02-15T02:40:06.805Z,4.22
2023-02-15T02:43:11.159Z,4.22
2023-02-15T02:46:10.474Z,4.18
2023-02-15T02:48:39.738Z,4.16
2023-02-15T02:51:07.105Z,4.16
2023-02-15T02:53:34.970Z,4.15
2023-02-15T02:56:41.838Z,4.13
2023-02-15T02:59:38.046Z,4.10
2023-02-15T03:02:29.713Z,4.06
2023-02-15T03:05:05.689Z,4.04
2023-02-15T03:07:36.948Z,4.02
2023-02-15T03:10:07.337Z,4.01
2023-02-15T03:12:40.376Z,4.00
2023-02-15T03:15:16.150Z,3.99
2023-02-15T03:17:49.935Z,3.99
2023-02-15T03:20:26.523Z,3.99
2023-02-15T03:23:02.477Z,3.98
2023-02-15T03:25:38.208Z,3.94
2023-02-15T03:28:14.510Z,3.91
2023-02-15T03:30:46.524Z,3.89
2023-02-15T03:33:16.154Z,3.89
2023-02-15T03:35:54.118Z,3.86
2023-02-15T03:38:31.071Z,3.86
2023-02-15T03:41:12.419Z,3.86
2023-02-15T03:43:56.668Z,3.84
2023-02-15T03:46:35.850Z,3.84
2023-02-15T03:49:14.527Z,3.83
2023-02-15T03:51:45.525Z,3.84
2023-02-15T03:54:41.642Z,3.82
2023-02-15T03:57:33.535Z,3.82
2023-02-15T04:00:23.133Z,3.83
2023-02-15T04:03:17.104Z,3.79
2023-02-15T04:05:45.930Z,3.77
2023-02-15T04:08:14.073Z,3.76
2023-02-15T04:10:53.580Z,3.73
2023-02-15T04:13:25.733Z,3.69
2023-02-15T04:16:05.351Z,3.68
2023-02-15T04:18:56.411Z,3.65
2023-02-15T04:21:44.492Z,3.63
2023-02-15T04:24:31.379Z,3.61
2023-02-15T04:26:59.400Z,3.59
2023-02-15T04:29:28.187Z,3.58
2023-02-15T04:32:00.298Z,3.58
2023-02-15T04:34:27.730Z,3.57
2023-02-15T04:36:54.786Z,3.55
2023-02-15T04:39:22.057Z,3.53
2023-02-15T04:41:49.165Z,3.51
2023-02-15T04:44:16.462Z,3.49
2023-02-15T04:46:43.603Z,3.48
2023-02-15T04:49:10.953Z,3.47
2023-02-15T04:51:38.097Z,3.45
2023-02-15T04:54:05.098Z,3.43
2023-02-15T04:56:34.181Z,3.41
2023-02-15T04:59:01.426Z,3.40
2023-02-15T05:01:29.171Z,3.37
2023-02-15T05:03:56.444Z,3.35
2023-02-15T05:06:23.600Z,3.34
2023-02-15T05:08:50.733Z,3.33
2023-02-15T05:11:17.731Z,3.31
2023-02-15T05:13:44.772Z,3.29
2023-02-15T05:16:12.031Z,3.25
2023-02-15T05:18:39.314Z,3.24
2023-02-15T05:21:06.379Z,3.22
2023-02-15T05:23:33.483Z,3.22
2023-02-15T05:26:19.116Z,3.20
2023-02-15T05:28:46.322Z,3.19
2023-02-15T05:31:19.490Z,3.17
2023-02-15T05:33:47.071Z,3.17
2023-02-15T05:36:14.530Z,3.17
2023-02-15T05:38:41.558Z,3.13
2023-02-15T05:41:10.868Z,3.10
2023-02-15T05:43:38.622Z,3.08
2023-02-15T05:46:06.996Z,3.06
2023-02-15T05:48:34.968Z,3.01
2023-02-15T05:51:17.993Z,2.98
2023-02-15T05:53:45.070Z,2.97
2023-02-15T05:56:13.196Z,2.97
2023-02-15T05:58:42.834Z,2.96
2023-02-15T06:01:20.684Z,2.94
2023-02-15T06:03:48.278Z,2.93
2023-02-15T06:06:16.472Z,2.93
2023-02-15T06:08:43.957Z,2.90
2023-02-15T06:11:11.851Z,2.87
2023-02-15T06:13:39.251Z,2.85
2023-02-15T06:16:07.611Z,2.83
2023-02-15T06:18:35.413Z,2.80
2023-02-15T06:21:02.569Z,2.79
2023-02-15T06:23:30.007Z,2.78
2023-02-15T06:25:57.592Z,2.78
2023-02-15T06:28:26.457Z,2.76
2023-02-15T06:30:53.593Z,2.75
2023-02-15T06:33:20.631Z,2.74
2023-02-15T06:35:47.732Z,2.73
2023-02-15T06:38:15.282Z,2.73
2023-02-15T06:40:42.489Z,2.75
2023-02-15T06:43:09.634Z,2.75
2023-02-15T06:45:36.597Z,2.74
2023-02-15T06:48:03.895Z,2.72
2023-02-15T06:50:31.285Z,2.71
2023-02-15T06:52:59.650Z,2.69
2023-02-15T06:55:27.388Z,2.69
2023-02-15T06:57:54.490Z,2.68
2023-02-15T07:00:24.146Z,2.68
2023-02-15T07:02:59.111Z,2.69
2023-02-15T07:05:32.384Z,2.69
2023-02-15T07:08:01.430Z,2.69
2023-02-15T07:10:29.482Z,2.71
2023-02-15T07:12:57.530Z,2.73
2023-02-15T07:15:25.396Z,2.74
2023-02-15T07:17:52.668Z,2.76
2023-02-15T07:20:23.140Z,2.76
2023-02-15T07:22:51.548Z,2.80
2023-02-15T07:25:19.680Z,2.81
2023-02-15T07:27:46.989Z,2.84
2023-02-15T07:30:18.459Z,2.87
2023-02-15T07:33:05.837Z,2.88
2023-02-15T07:35:34.575Z,2.93
2023-02-15T07:38:02.412Z,2.94
2023-02-15T07:40:29.625Z,3.01
2023-02-15T07:43:00.292Z,3.04
2023-02-15T07:45:28.193Z,3.09
2023-02-15T07:47:55.319Z,3.10
2023-02-15T07:50:23.368Z,3.19
2023-02-15T07:52:51.302Z,3.24
2023-02-15T07:55:19.628Z,3.30
2023-02-15T07:57:49.291Z,3.36
2023-02-15T08:00:23.969Z,3.44
2023-02-15T08:03:14.300Z,3.53
2023-02-15T08:05:44.272Z,3.55
2023-02-15T08:08:30.860Z,3.67
2023-02-15T08:11:32.005Z,3.71
2023-02-15T08:14:03.576Z,3.75
2023-02-15T08:16:48.173Z,3.83
2023-02-15T08:19:17.868Z,3.90
2023-02-15T08:21:49.406Z,3.98
2023-02-15T08:24:20.449Z,4.03
2023-02-15T08:26:49.617Z,4.11
2023-02-15T08:29:20.398Z,4.19
2023-02-15T08:31:48.061Z,4.27
2023-02-15T08:34:18.856Z,4.36
2023-02-15T08:36:46.580Z,4.38
2023-02-15T08:39:15.652Z,4.47
2023-02-15T08:41:46.287Z,4.60
2023-02-15T08:44:13.815Z,4.69
2023-02-15T08:46:44.670Z,4.80
2023-02-15T08:49:19.283Z,4.91
2023-02-15T08:51:48.824Z,5.00
2023-02-15T08:54:20.084Z,5.07
2023-02-15T08:56:48.365Z,5.19
2023-02-15T08:59:19.336Z,5.30
2023-02-15T09:01:48.577Z,5.40
2023-02-15T09:04:16.903Z,5.48
2023-02-15T09:06:48.562Z,5.57
2023-02-15T09:09:18.129Z,5.71
2023-02-15T09:11:48.355Z,5.77
2023-02-15T09:14:21.987Z,5.90
2023-02-15T09:16:52.011Z,5.98
2023-02-15T09:19:22.190Z,6.08
2023-02-15T09:21:49.508Z,6.19
2023-02-15T09:24:18.117Z,6.27
2023-02-15T09:26:49.136Z,6.40
2023-02-15T09:29:18.910Z,6.46
2023-02-15T09:31:50.185Z,6.58
2023-02-15T09:34:23.223Z,6.67
2023-02-15T09:36:52.171Z,6.73
2023-02-15T09:39:27.638Z,6.88
2023-02-15T09:42:26.033Z,6.98
2023-02-15T09:45:05.069Z,7.09
2023-02-15T09:47:50.600Z,7.20
2023-02-15T09:50:41.115Z,7.28
2023-02-15T09:53:40.298Z,7.37
2023-02-15T09:56:38.692Z,7.45
2023-02-15T09:59:24.305Z,7.60
2023-02-15T10:02:29.459Z,7.72
2023-02-15T10:05:08.361Z,7.80
2023-02-15T10:08:30.639Z,7.93
2023-02-15T10:11:42.429Z,8.06
2023-02-15T10:14:39.389Z,8.19
2023-02-15T10:17:31.946Z,8.28
2023-02-15T10:20:16.134Z,8.40
2023-02-15T10:23:26.307Z,8.49
2023-02-15T10:26:43.070Z,8.60
2023-02-15T10:29:32.203Z,8.71
2023-02-15T10:32:27.704Z,8.87
2023-02-15T10:35:29.367Z,8.95
2023-02-15T10:38:11.488Z,9.08
2023-02-15T10:40:49.803Z,9.16
2023-02-15T10:44:07.336Z,9.25
2023-02-15T10:47:26.480Z,9.36
2023-02-15T10:50:03.712Z,9.48
2023-02-15T10:53:14.022Z,9.58
2023-02-15T10:55:54.912Z,9.72
2023-02-15T10:59:11.737Z,9.87
2023-02-15T11:02:11.522Z,9.94
2023-02-15T11:04:53.255Z,10.04
2023-02-15T11:07:43.286Z,10.19
2023-02-15T11:10:39.655Z,10.29
2023-02-15T11:13:18.223Z,10.35
2023-02-15T11:16:12.752Z,10.48
2023-02-15T11:18:53.448Z,10.60
2023-02-15T11:21:41.784Z,10.67
2023-02-15T11:24:22.168Z,10.77
2023-02-15T11:27:14.671Z,10.86
2023-02-15T11:30:15.264Z,11.01
2023-02-15T11:32:51.181Z,11.10
2023-02-15T11:35:28.651Z,11.22
2023-02-15T11:37:57.564Z,11.26
2023-02-15T11:40:37.394Z,11.35
2023-02-15T11:43:36.062Z,11.46
2023-02-15T11:46:03.507Z,11.60
2023-02-15T11:48:33.350Z,11.72
2023-02-15T11:51:04.775Z,11.79
2023-02-15T11:53:39.091Z,11.85
2023-02-15T11:56:15.263Z,11.91
2023-02-15T11:58:49.942Z,12.00
2023-02-15T12:01:36.626Z,12.03
2023-02-15T12:04:36.932Z,12.19
2023-02-15T12:07:27.665Z,12.31
2023-02-15T12:10:18.962Z,12.43
2023-02-15T12:12:46.012Z,12.54
2023-02-15T12:15:14.899Z,12.56
2023-02-15T12:17:53.447Z,12.69
2023-02-15T12:20:26.200Z,12.81
2023-02-15T12:23:04.229Z,12.90
2023-02-15T12:25:52.970Z,13.03
2023-02-15T12:28:43.957Z,13.15
2023-02-15T12:31:24.623Z,13.23
2023-02-15T12:33:55.680Z,13.33
2023-02-15T12:36:29.044Z,13.44
2023-02-15T12:39:14.377Z,13.49
2023-02-15T12:42:15.572Z,13.50
2023-02-15T12:45:02.304Z,13.61
2023-02-15T12:47:32.368Z,13.73
2023-02-15T12:50:12.313Z,13.79
2023-02-15T12:52:40.299Z,13.90
2023-02-15T12:55:26.478Z,13.95
2023-02-15T12:58:24.494Z,13.99
2023-02-15T13:01:10.723Z,14.05
2023-02-15T13:03:54.870Z,14.12
2023-02-15T13:06:22.635Z,14.17
2023-02-15T13:08:56.266Z,14.18
2023-02-15T13:11:35.120Z,14.27
2023-02-15T13:14:16.750Z,14.35
2023-02-15T13:16:47.548Z,14.43
2023-02-15T13:19:46.641Z,14.51
2023-02-15T13:22:34.039Z,14.55
2023-02-15T13:25:13.052Z,14.62
2023-02-15T13:27:43.691Z,14.71
2023-02-15T13:30:36.272Z,14.80
2023-02-15T13:33:07.927Z,14.87
2023-02-15T13:36:21.698Z,14.94
2023-02-15T13:39:09.405Z,15.02
2023-02-15T13:42:07.390Z,15.06
2023-02-15T13:44:58.010Z,15.11
2023-02-15T13:47:45.515Z,15.16
2023-02-15T13:50:36.785Z,15.17
2023-02-15T13:53:57.119Z,15.25
2023-02-15T13:56:54.534Z,15.35
2023-02-15T13:59:57.245Z,15.43
2023-02-15T14:02:44.967Z,15.48
2023-02-15T14:05:37.486Z,15.40
2023-02-15T14:08:41.147Z,15.42
2023-02-15T14:11:39.088Z,15.37
2023-02-15T14:14:28.748Z,15.39
2023-02-15T14:17:24.809Z,15.43
2023-02-15T14:20:22.282Z,15.50
2023-02-15T14:23:12.998Z,15.58
2023-02-15T14:25:57.458Z,15.60
2023-02-15T14:28:57.063Z,15.60
2023-02-15T14:31:35.674Z,15.66
2023-02-15T14:34:02.924Z,15.77
2023-02-15T14:36:31.393Z,15.80
2023-02-15T14:39:30.371Z,15.85
2023-02-15T14:42:06.183Z,15.86
2023-02-15T14:44:47.010Z,15.87
2023-02-15T14:47:33.293Z,15.84
2023-02-15T14:50:36.665Z,15.81
2023-02-15T14:53:39.716Z,15.74
2023-02-15T14:56:23.757Z,15.67
2023-02-15T14:58:51.136Z,15.61
2023-02-15T15:01:36.564Z,15.56
2023-02-15T15:04:24.932Z,15.51
2023-02-15T15:07:07.910Z,15.42
2023-02-15T15:09:39.694Z,15.37
2023-02-15T15:12:22.321Z,15.31
2023-02-15T15:14:52.053Z,15.26
2023-02-15T15:17:39.171Z,15.24
2023-02-15T15:20:08.612Z,15.18
2023-02-15T15:22:37.574Z,15.14
2023-02-15T15:25:34.900Z,15.09
2023-02-15T15:28:03.890Z,15.06
2023-02-15T15:30:31.235Z,15.00
2023-02-15T15:32:58.792Z,14.96
2023-02-15T15:35:47.080Z,14.93
2023-02-15T15:39:15.904Z,14.88
2023-02-15T15:42:13.674Z,14.82
2023-02-15T15:45:01.535Z,14.80
2023-02-15T15:48:27.710Z,14.75
2023-02-15T15:50:59.189Z,14.70
2023-02-15T15:53:30.311Z,14.65
2023-02-15T15:56:06.318Z,14.63
2023-02-15T15:58:35.869Z,14.59
2023-02-15T16:01:10.528Z,14.54
2023-02-15T16:03:38.258Z,14.51
2023-02-15T16:06:06.491Z,14.47
2023-02-15T16:08:38.677Z,14.41
2023-02-15T16:11:23.536Z,14.36
2023-02-15T16:13:51.771Z,14.30
2023-02-15T16:16:36.793Z,14.23
2023-02-15T16:19:04.324Z,14.16
2023-02-15T16:21:35.856Z,14.11
2023-02-15T16:24:22.009Z,14.03
2023-02-15T16:26:59.406Z,13.94
2023-02-15T16:29:33.186Z,13.88
2023-02-15T16:32:36.891Z,13.77
2023-02-15T16:35:04.747Z,13.69
2023-02-15T16:37:36.018Z,13.62
2023-02-15T16:40:03.878Z,13.53
2023-02-15T16:42:31.160Z,13.44
2023-02-15T16:45:09.709Z,13.36
2023-02-15T16:47:43.335Z,13.27
2023-02-15T16:50:40.629Z,13.21
2023-02-15T16:53:20.134Z,13.10
2023-02-15T16:55:53.212Z,13.01
2023-02-15T16:58:30.204Z,12.92
2023-02-15T17:01:00.085Z,12.83
2023-02-15T17:03:28.094Z,12.76
2023-02-15T17:06:01.267Z,12.70
2023-02-15T17:08:33.349Z,12.61
2023-02-15T17:11:00.792Z,12.52
2023-02-15T17:13:30.060Z,12.46
2023-02-15T17:16:03.392Z,12.38
2023-02-15T17:18:32.676Z,12.32
2023-02-15T17:21:12.252Z,12.26
2023-02-15T17:23:46.016Z,12.20
2023-02-15T17:26:21.058Z,12.12
2023-02-15T17:28:52.888Z,12.03
2023-02-15T17:31:22.038Z,11.97
2023-02-15T17:33:50.319Z,11.90
2023-02-15T17:36:22.985Z,11.87
2023-02-15T17:38:59.261Z,11.78
2023-02-15T17:41:31.916Z,11.71
2023-02-15T17:43:59.267Z,11.66
2023-02-15T17:46:28.873Z,11.61
2023-02-15T17:48:57.077Z,11.54
2023-02-15T17:51:24.444Z,11.49
2023-02-15T17:54:09.907Z,11.43
2023-02-15T17:56:39.031Z,11.37
2023-02-15T17:59:07.718Z,11.32
2023-02-15T18:01:56.160Z,11.27
2023-02-15T18:04:42.055Z,11.20
2023-02-15T18:07:29.110Z,11.14
2023-02-15T18:10:15.030Z,11.08
2023-02-15T18:12:42.516Z,11.02
2023-02-15T18:15:12.279Z,10.97
2023-02-15T18:17:43.407Z,10.91
2023-02-15T18:20:18.331Z,10.85
2023-02-15T18:22:46.620Z,10.78
2023-02-15T18:25:16.211Z,10.74
2023-02-15T18:27:44.197Z,10.71
2023-02-15T18:30:18.453Z,10.68
2023-02-15T18:32:46.646Z,10.62
2023-02-15T18:35:19.613Z,10.58
2023-02-15T18:37:47.391Z,10.55
2023-02-15T18:40:17.455Z,10.48
2023-02-15T18:42:47.958Z,10.43
2023-02-15T18:45:25.318Z,10.38
2023-02-15T18:47:55.401Z,10.34
2023-02-15T18:50:25.249Z,10.29
2023-02-15T18:52:52.359Z,10.27
2023-02-15T18:55:23.119Z,10.24
2023-02-15T18:57:52.983Z,10.20
2023-02-15T19:00:28.465Z,10.17
2023-02-15T19:02:56.735Z,10.09
2023-02-15T19:05:25.182Z,10.03
2023-02-15T19:07:52.553Z,9.99
2023-02-15T19:10:26.601Z,9.95
2023-02-15T19:12:55.984Z,9.92
2023-02-15T19:15:32.837Z,9.91
2023-02-15T19:17:59.897Z,9.87
2023-02-15T19:20:42.697Z,9.84
2023-02-15T19:23:21.041Z,9.78
2023-02-15T19:25:49.990Z,9.75
2023-02-15T19:28:30.411Z,9.71
2023-02-15T19:30:57.442Z,9.67
2023-02-15T19:33:24.470Z,9.64
2023-02-15T19:35:56.261Z,9.63
2023-02-15T19:38:36.600Z,9.58
2023-02-15T19:41:09.419Z,9.56
2023-02-15T19:43:36.462Z,9.53
2023-02-15T19:46:04.109Z,9.48
2023-02-15T19:48:31.445Z,9.43
2023-02-15T19:50:58.848Z,9.39
2023-02-15T19:53:28.102Z,9.40
2023-02-15T19:55:56.278Z,9.35
2023-02-15T19:58:24.250Z,9.33
2023-02-15T20:00:52.093Z,9.30
2023-02-15T20:03:19.559Z,9.25
2023-02-15T20:05:47.093Z,9.23
2023-02-15T20:08:18.906Z,9.21
2023-02-15T20:10:46.675Z,9.14
2023-02-15T20:13:20.053Z,9.12
2023-02-15T20:15:48.508Z,9.06
2023-02-15T20:18:15.540Z,9.04
2023-02-15T20:20:52.834Z,8.99
2023-02-15T20:23:32.061Z,8.97
2023-02-15T20:26:02.827Z,8.92
2023-02-15T20:28:31.845Z,8.88
2023-02-15T20:30:59.581Z,8.87
2023-02-15T20:33:26.688Z,8.82
2023-02-15T20:35:53.911Z,8.81
2023-02-15T20:38:27.093Z,8.73
2023-02-15T20:41:14.536Z,8.69
2023-02-15T20:43:41.872Z,8.64
2023-02-15T20:46:09.478Z,8.60
2023-02-15T20:48:36.724Z,8.55
2023-02-15T20:51:04.361Z,8.54
2023-02-15T20:53:32.124Z,8.48
2023-02-15T20:55:59.369Z,8.48
2023-02-15T20:58:29.984Z,8.44
2023-02-15T21:01:00.263Z,8.42
2023-02-15T21:03:31.268Z,8.41
2023-02-15T21:05:59.375Z,8.40
2023-02-15T21:08:27.378Z,8.38
2023-02-15T21:10:55.195Z,8.38
2023-02-15T21:13:27.959Z,8.35
2023-02-15T21:15:57.679Z,8.31
2023-02-15T21:18:28.611Z,8.26
2023-02-15T21:21:06.887Z,8.22
2023-02-15T21:23:40.984Z,8.15
2023-02-15T21:26:19.368Z,8.10
2023-02-15T21:28:48.039Z,8.08
2023-02-15T21:31:24.684Z,8.04
2023-02-15T21:33:52.205Z,8.02
2023-02-15T21:36:23.559Z,7.97
2023-02-15T21:38:51.701Z,7.91
2023-02-15T21:41:41.716Z,7.88
2023-02-15T21:44:42.645Z,7.82
2023-02-15T21:47:40.189Z,7.80
2023-02-15T21:50:31.158Z,7.76
2023-02-15T21:52:59.610Z,7.73
2023-02-15T21:55:27.994Z,7.70
2023-02-15T21:57:55.113Z,7.70
2023-02-15T22:00:27.751Z,7.67
2023-02-15T22:02:58.314Z,7.66
2023-02-15T22:05:30.835Z,7.65
2023-02-15T22:07:58.101Z,7.65
2023-02-15T22:10:33.467Z,7.61
2023-02-15T22:13:02.638Z,7.58
2023-02-15T22:15:36.587Z,7.51
2023-02-15T22:18:05.670Z,7.50
2023-02-15T22:20:32.758Z,7.47
2023-02-15T22:23:00.312Z,7.46
2023-02-15T22:25:28.190Z,7.46
2023-02-15T22:27:55.541Z,7.45
2023-02-15T22:30:33.988Z,7.42
2023-02-15T22:33:01.318Z,7.42
2023-02-15T22:35:32.269Z,7.38
2023-02-15T22:37:59.959Z,7.34
2023-02-15T22:40:32.068Z,7.32
2023-02-15T22:43:03.740Z,7.27
2023-02-15T22:45:33.186Z,7.25
2023-02-15T22:48:01.480Z,7.22
2023-02-15T22:50:32.518Z,7.16
2023-02-15T22:53:02.040Z,7.14
2023-02-15T22:55:36.537Z,7.14
2023-02-15T22:58:05.162Z,7.11
2023-02-15T23:00:39.706Z,7.08
2023-02-15T23:03:25.659Z,7.05
2023-02-15T23:05:53.462Z,7.05
2023-02-15T23:08:21.283Z,7.04
2023-02-15T23:10:55.906Z,6.99
2023-02-15T23:13:31.430Z,6.97
2023-02-15T23:16:04.064Z,6.92
2023-02-15T23:18:38.461Z,6.93
2023-02-15T23:21:26.572Z,6.92
2023-02-15T23:24:29.563Z,6.88
2023-02-15T23:27:20.411Z,6.92
2023-02-15T23:29:47.448Z,6.91
2023-02-15T23:32:15.838Z,6.89
2023-02-15T23:34:43.328Z,6.85
2023-02-15T23:37:13.227Z,6.84
2023-02-15T23:39:58.955Z,6.79
2023-02-15T23:42:32.256Z,6.76
2023-02-15T23:44:59.639Z,6.73
2023-02-15T23:47:53.995Z,6.68
2023-02-15T23:50:30.049Z,6.63
2023-02-15T23:52:58.037Z,6.62
2023-02-15T23:55:51.383Z,6.55
2023-02-15T23:58:24.860Z,6.57
